Time;durP1;ratioP1;P1;durP2;ratioP2;P2;SDS_P1;SDS_P2;PMS_P1;PMS_P2;Temp;Humidity;BMP_temperature;BMP_pressure;BME280_temperature;BME280_humidity;BME280_pressure;Samples;Min_cycle;Max_cycle;Signal;HPM_P1;HPM_P2
2023/09/14 00:00:56;;;;;;;24.00;20.70;;;;;;;22.04;100.00;98701.42;137625;1273;22144;-80
2023/09/14 00:04:04;;;;;;;23.20;20.70;;;;;;;22.06;100.00;98704.73;137532;1273;22672;-80
2023/09/14 00:07:05;;;;;;;255.30;227.00;;;;;;;22.11;100.00;98712.51;137537;1273;22168;-81
2023/09/14 00:10:06;;;;;;;138.70;108.00;;;;;;;22.09;100.00;98716.13;137406;1273;22485;-82
2023/09/14 00:13:07;;;;;;;45.20;36.50;;;;;;;21.97;100.00;98723.81;137609;1273;22174;-81
2023/09/14 00:16:08;;;;;;;218.10;162.60;;;;;;;21.81;100.00;98723.32;137496;1269;22546;-81
2023/09/14 00:19:09;;;;;;;38.80;32.80;;;;;;;21.84;100.00;98720.36;137365;1273;22154;-84
2023/09/14 00:22:10;;;;;;;580.00;486.40;;;;;;;21.86;100.00;98723.13;137514;1273;22146;-82
2023/09/14 00:25:11;;;;;;;60.10;46.20;;;;;;;21.89;100.00;98726.77;137525;1273;22165;-82
2023/09/14 00:28:12;;;;;;;500.40;360.80;;;;;;;21.70;100.00;98727.77;137515;1273;22551;-82
2023/09/14 00:31:14;;;;;;;28.60;24.60;;;;;;;21.54;100.00;98723.70;137377;1273;22520;-84
2023/09/14 00:34:15;;;;;;;25.40;21.00;;;;;;;21.24;100.00;98726.09;137633;1273;22601;-84
2023/09/14 00:37:16;;;;;;;44.30;36.00;;;;;;;20.70;100.00;98724.45;137527;1273;22404;-83
2023/09/14 00:40:17;;;;;;;25.00;22.50;;;;;;;20.42;100.00;98728.30;137598;1273;22737;-83
2023/09/14 00:43:19;;;;;;;31.10;26.50;;;;;;;20.04;100.00;98725.83;137614;1273;22377;-83
2023/09/14 00:46:20;;;;;;;26.70;23.70;;;;;;;19.71;100.00;98732.36;137489;1273;22550;-83
2023/09/14 00:49:21;;;;;;;26.10;23.50;;;;;;;19.47;100.00;98732.27;137572;1273;22740;-83
2023/09/14 00:52:22;;;;;;;27.60;24.80;;;;;;;19.24;100.00;98730.38;137390;1273;22626;-82
2023/09/14 00:55:23;;;;;;;29.30;26.20;;;;;;;19.20;100.00;98728.55;137603;1273;22241;-83
2023/09/14 00:58:24;;;;;;;30.00;26.40;;;;;;;19.09;100.00;98732.85;137558;1273;22505;-83
2023/09/14 01:01:26;;;;;;;27.80;24.80;;;;;;;19.00;100.00;98730.56;137554;1273;22255;-83
2023/09/14 01:04:29;;;;;;;132.30;89.60;;;;;;;19.13;100.00;98736.64;137555;1273;22838;-83
2023/09/14 01:07:30;;;;;;;38.80;25.60;;;;;;;19.18;100.00;98739.70;137609;1273;22396;-83
2023/09/14 01:10:31;;;;;;;29.10;26.00;;;;;;;19.00;100.00;98743.98;137457;1273;22206;-83
2023/09/14 01:13:32;;;;;;;28.40;25.60;;;;;;;18.83;100.00;98741.36;137531;1273;22191;-83
2023/09/14 01:16:34;;;;;;;29.30;25.70;;;;;;;18.74;100.00;98739.80;137537;1273;22231;-83
2023/09/14 01:19:35;;;;;;;30.40;26.60;;;;;;;18.88;100.00;98739.16;137473;1273;24998;-83
2023/09/14 01:22:36;;;;;;;26.00;23.20;;;;;;;18.88;100.00;98738.45;137592;1273;22416;-83
2023/09/14 01:25:37;;;;;;;27.00;24.30;;;;;;;18.86;100.00;98740.61;137566;1273;22979;-81
2023/09/14 01:28:38;;;;;;;28.40;25.40;;;;;;;18.74;100.00;98746.88;137559;1273;22793;-81
2023/09/14 01:31:41;;;;;;;27.90;23.50;;;;;;;18.68;100.00;98745.42;137474;1273;22188;-80
2023/09/14 01:34:42;;;;;;;26.30;23.60;;;;;;;18.85;100.00;98743.80;137541;1273;22193;-83
2023/09/14 01:37:43;;;;;;;110.80;82.20;;;;;;;19.00;100.00;98743.79;137536;1273;22854;-81
2023/09/14 01:40:44;;;;;;;30.20;24.20;;;;;;;18.95;100.00;98745.86;137511;1272;22591;-80
2023/09/14 01:43:45;;;;;;;34.60;25.30;;;;;;;18.83;100.00;98742.25;137568;1273;22714;-82
2023/09/14 01:46:46;;;;;;;49.70;40.30;;;;;;;18.81;100.00;98747.95;137567;1266;22223;-83
2023/09/14 01:49:47;;;;;;;30.40;25.50;;;;;;;18.96;100.00;98747.08;137484;1273;22565;-83
2023/09/14 01:52:49;;;;;;;26.30;23.70;;;;;;;19.31;100.00;98752.96;137547;1273;22747;-82
2023/09/14 01:55:50;;;;;;;31.50;27.00;;;;;;;19.27;100.00;98753.76;137539;1273;22172;-82
2023/09/14 01:58:51;;;;;;;27.40;24.50;;;;;;;19.29;100.00;98754.94;137483;1273;22568;-83
2023/09/14 02:01:52;;;;;;;26.40;23.00;;;;;;;19.30;100.00;98760.23;137591;1273;22674;-82
2023/09/14 02:04:53;;;;;;;28.50;24.70;;;;;;;19.33;100.00;98756.96;137503;1273;22173;-82
2023/09/14 02:07:54;;;;;;;586.40;423.50;;;;;;;19.62;100.00;98760.84;137573;1270;22611;-83
2023/09/14 02:10:56;;;;;;;36.40;29.50;;;;;;;19.89;100.00;98768.42;137513;1273;22196;-84
2023/09/14 02:13:57;;;;;;;24.80;22.30;;;;;;;19.86;100.00;98766.93;137466;1273;23063;-84
2023/09/14 02:16:58;;;;;;;25.50;21.20;;;;;;;19.76;100.00;98770.17;137458;1273;22762;-83
2023/09/14 02:19:59;;;;;;;23.00;20.80;;;;;;;19.50;100.00;98771.55;137443;1273;22537;-85
2023/09/14 02:23:00;;;;;;;23.30;20.70;;;;;;;19.44;100.00;98777.52;137530;1273;22465;-85
2023/09/14 02:26:02;;;;;;;25.50;21.00;;;;;;;19.51;100.00;98777.88;137506;1273;22210;-85
2023/09/14 02:29:03;;;;;;;25.10;22.40;;;;;;;19.32;100.00;98775.16;137278;1267;22371;-85
2023/09/14 02:32:04;;;;;;;38.40;30.70;;;;;;;19.38;100.00;98776.05;137247;1273;22200;-85
2023/09/14 02:35:05;;;;;;;29.70;25.50;;;;;;;19.63;100.00;98775.10;137529;1273;22306;-84
2023/09/14 02:38:06;;;;;;;26.30;23.50;;;;;;;20.04;100.00;98781.13;137454;1273;22220;-82
2023/09/14 02:41:07;;;;;;;19.40;17.60;;;;;;;19.91;100.00;98779.52;137570;1273;22761;-84
2023/09/14 02:44:09;;;;;;;20.90;18.70;;;;;;;19.65;100.00;98778.60;137405;1273;22169;-85
2023/09/14 02:47:10;;;;;;;24.20;21.70;;;;;;;19.76;100.00;98779.01;137437;1273;22159;-85
2023/09/14 02:50:11;;;;;;;43.10;30.10;;;;;;;19.61;100.00;98781.86;137555;1273;22299;-85
2023/09/14 02:53:12;;;;;;;79.80;50.10;;;;;;;19.51;100.00;98784.59;137505;1273;22380;-85
2023/09/14 02:56:16;;;;;;;50.00;33.20;;;;;;;19.48;100.00;98782.53;137473;1273;22277;-84
2023/09/14 02:59:17;;;;;;;26.60;24.00;;;;;;;19.35;100.00;98788.14;137444;1269;22620;-84
2023/09/14 03:02:21;;;;;;;20.40;18.30;;;;;;;19.07;100.00;98789.52;137464;1266;22991;-85
2023/09/14 03:05:22;;;;;;;;;;;;;;;19.17;100.00;98791.23;137345;1273;22575;-85
2023/09/14 03:08:24;;;;;;;64.20;44.60;;;;;;;19.14;100.00;98792.52;137605;1269;22682;-85
2023/09/14 03:11:25;;;;;;;279.40;173.50;;;;;;;19.02;100.00;98792.77;137569;1273;22531;-85
2023/09/14 03:14:26;;;;;;;29.50;23.30;;;;;;;19.01;100.00;98796.33;137500;1272;22223;-84
2023/09/14 03:17:27;;;;;;;58.10;36.30;;;;;;;19.02;100.00;98791.73;137493;1273;22301;-84
2023/09/14 03:20:28;;;;;;;107.70;59.70;;;;;;;19.03;100.00;98793.64;137491;1273;23466;-85
2023/09/14 03:23:29;;;;;;;21.60;17.60;;;;;;;19.08;100.00;98793.37;137466;1273;22353;-84
2023/09/14 03:26:30;;;;;;;19.80;17.90;;;;;;;19.03;100.00;98794.71;137473;1273;23018;-84
2023/09/14 03:29:32;;;;;;;23.50;17.90;;;;;;;18.80;100.00;98798.20;137476;1273;22595;-84
2023/09/14 03:32:33;;;;;;;18.40;16.60;;;;;;;18.59;100.00;98799.89;137553;1272;22252;-83
2023/09/14 03:35:34;;;;;;;18.80;17.20;;;;;;;18.45;100.00;98799.29;137589;1273;22185;-84
2023/09/14 03:38:35;;;;;;;29.00;22.00;;;;;;;18.29;100.00;98797.48;137547;1273;22407;-82
2023/09/14 03:41:37;;;;;;;22.30;19.90;;;;;;;18.13;100.00;98799.89;137527;1273;22452;-82
2023/09/14 03:44:38;;;;;;;24.20;21.70;;;;;;;17.98;100.00;98800.70;137513;1273;22291;-81
2023/09/14 03:47:39;;;;;;;25.00;21.50;;;;;;;17.88;100.00;98803.52;137569;1272;22264;-83
2023/09/14 03:50:40;;;;;;;26.20;23.60;;;;;;;17.80;100.00;98806.13;137537;1273;22227;-85
2023/09/14 03:53:41;;;;;;;25.90;23.30;;;;;;;17.75;100.00;98809.74;137568;1273;22337;-83
2023/09/14 03:56:42;;;;;;;29.30;26.30;;;;;;;17.82;100.00;98816.31;137496;1273;22203;-83
2023/09/14 03:59:43;;;;;;;30.00;26.90;;;;;;;17.74;100.00;98822.79;137535;1273;22247;-83
2023/09/14 04:02:44;;;;;;;32.10;27.10;;;;;;;17.64;100.00;98826.99;137564;1273;22296;-83
2023/09/14 04:05:46;;;;;;;31.60;27.70;;;;;;;17.55;100.00;98829.41;137527;1273;22184;-83
2023/09/14 04:08:47;;;;;;;31.60;28.40;;;;;;;17.50;100.00;98832.14;137527;1273;22166;-83
2023/09/14 04:11:48;;;;;;;31.90;28.80;;;;;;;17.44;100.00;98837.50;137525;1273;22766;-81
2023/09/14 04:14:49;;;;;;;31.40;28.30;;;;;;;17.39;100.00;98838.47;137504;1273;22707;-83
2023/09/14 04:17:50;;;;;;;33.30;27.90;;;;;;;17.35;100.00;98848.37;137503;1273;22254;-82
2023/09/14 04:20:51;;;;;;;31.10;28.00;;;;;;;17.30;100.00;98853.34;137535;1273;22193;-82
2023/09/14 04:23:52;;;;;;;33.10;28.30;;;;;;;17.26;100.00;98850.77;137533;1269;22284;-82
2023/09/14 04:26:54;;;;;;;31.90;28.50;;;;;;;17.22;100.00;98852.06;137534;1273;22332;-82
2023/09/14 04:29:55;;;;;;;35.00;28.80;;;;;;;17.17;100.00;98858.46;137492;1273;22204;-81
2023/09/14 04:32:56;;;;;;;29.00;26.20;;;;;;;17.13;100.00;98862.73;137569;1269;22165;-82
2023/09/14 04:35:57;;;;;;;39.30;32.00;;;;;;;17.08;100.00;98867.55;137521;1273;22699;-81
2023/09/14 04:38:58;;;;;;;30.50;25.50;;;;;;;17.05;100.00;98870.77;137589;1273;22679;-81
2023/09/14 04:42:00;;;;;;;28.60;24.80;;;;;;;17.00;100.00;98879.63;137407;1267;22255;-81
2023/09/14 04:45:01;;;;;;;27.00;24.10;;;;;;;16.90;100.00;98884.33;137595;1273;22316;-78
2023/09/14 04:48:02;;;;;;;24.20;21.60;;;;;;;16.79;100.00;98887.10;137583;1273;22975;-80
2023/09/14 04:51:03;;;;;;;23.60;21.10;;;;;;;16.73;100.00;98886.48;137485;1272;22230;-81
2023/09/14 04:54:04;;;;;;;22.70;20.20;;;;;;;16.69;100.00;98890.21;137491;1273;22251;-81
2023/09/14 04:57:06;;;;;;;22.10;19.90;;;;;;;16.67;100.00;98897.45;137537;1273;22221;-83
2023/09/14 05:00:09;;;;;;;24.80;19.80;;;;;;;16.64;100.00;98897.98;137442;1272;22248;-81
2023/09/14 05:03:10;;;;;;;20.40;18.40;;;;;;;16.62;100.00;98904.85;137531;1273;22240;-83
2023/09/14 05:06:12;;;;;;;19.40;17.60;;;;;;;16.62;100.00;98908.02;137506;1273;22285;-83
2023/09/14 05:09:13;;;;;;;18.80;16.40;;;;;;;16.61;100.00;98910.30;137556;1273;22889;-83
2023/09/14 05:12:14;;;;;;;17.60;15.80;;;;;;;16.59;100.00;98915.77;137560;1273;22361;-83
2023/09/14 05:15:16;;;;;;;15.70;14.40;;;;;;;16.59;100.00;98917.36;137448;1273;22246;-83
2023/09/14 05:18:17;;;;;;;17.00;13.60;;;;;;;16.57;100.00;98919.84;137559;1273;22239;-84
2023/09/14 05:21:18;;;;;;;15.30;13.90;;;;;;;16.58;100.00;98920.54;137532;1273;22209;-84
2023/09/14 05:24:19;;;;;;;17.70;15.90;;;;;;;16.58;100.00;98921.92;137600;1273;22240;-84
2023/09/14 05:27:21;;;;;;;17.10;15.30;;;;;;;16.58;100.00;98925.09;137566;1273;22545;-83
2023/09/14 05:30:24;;;;;;;16.50;15.00;;;;;;;16.59;100.00;98927.89;137591;1273;22209;-82
2023/09/14 05:33:25;;;;;;;15.90;14.30;;;;;;;16.60;100.00;98930.54;137627;1273;22196;-82
2023/09/14 05:36:27;;;;;;;16.20;14.70;;;;;;;16.60;100.00;98937.20;137528;1273;22217;-81
2023/09/14 05:39:28;;;;;;;16.40;14.90;;;;;;;16.59;100.00;98938.44;137530;1273;22229;-81
2023/09/14 05:42:30;;;;;;;16.70;14.90;;;;;;;16.59;100.00;98938.61;137563;1273;22241;-80
2023/09/14 05:45:31;;;;;;;15.40;14.00;;;;;;;16.61;100.00;98943.34;137569;1273;22365;-80
2023/09/14 05:48:33;;;;;;;15.60;14.10;;;;;;;16.64;100.00;98947.35;137602;1273;22187;-82
2023/09/14 05:51:35;;;;;;;15.80;14.40;;;;;;;16.68;100.00;98948.57;137597;1273;22263;-81
2023/09/14 05:54:36;;;;;;;14.90;13.60;;;;;;;16.69;100.00;98953.48;137556;1273;22230;-82
2023/09/14 05:57:37;;;;;;;13.70;12.40;;;;;;;16.70;100.00;98953.81;137581;1273;22216;-85
2023/09/14 06:00:39;;;;;;;13.70;12.30;;;;;;;16.71;100.00;98961.70;137563;1273;22469;-86
2023/09/14 06:03:40;;;;;;;13.80;12.50;;;;;;;16.71;100.00;98966.63;137600;1273;22302;-81
2023/09/14 06:06:41;;;;;;;15.60;12.60;;;;;;;16.73;100.00;98967.31;137524;1273;22210;-82
2023/09/14 06:09:42;;;;;;;13.70;12.30;;;;;;;16.73;100.00;98969.23;137593;1273;22230;-82
2023/09/14 06:12:43;;;;;;;13.60;12.20;;;;;;;16.73;100.00;98972.40;137551;1273;22330;-83
2023/09/14 06:15:44;;;;;;;13.60;11.60;;;;;;;16.76;100.00;98973.25;137507;1273;22207;-84
2023/09/14 06:18:46;;;;;;;12.40;11.40;;;;;;;16.76;100.00;98980.45;137527;1267;22235;-83
2023/09/14 06:21:47;;;;;;;12.60;11.50;;;;;;;16.78;100.00;98982.01;137530;1273;22334;-84
2023/09/14 06:24:49;;;;;;;12.40;11.30;;;;;;;16.82;100.00;98983.02;137543;1273;22268;-84
2023/09/14 06:27:50;;;;;;;12.50;11.40;;;;;;;16.84;100.00;98984.94;137492;1272;22359;-85
2023/09/14 06:30:54;;;;;;;13.60;12.30;;;;;;;16.83;100.00;98984.60;137519;1273;22249;-84
2023/09/14 06:33:55;;;;;;;;;;;;;;;16.84;100.00;98988.45;137551;1272;22838;-85
2023/09/14 06:36:56;;;;;;;13.30;12.00;;;;;;;16.84;100.00;98990.73;137431;1273;22216;-84
2023/09/14 06:40:00;;;;;;;12.80;11.40;;;;;;;16.88;100.00;98991.23;137506;1273;22332;-84
2023/09/14 06:43:02;;;;;;;13.50;12.20;;;;;;;16.93;100.00;98991.16;137504;1273;22903;-83
2023/09/14 06:46:05;;;;;;;11.50;10.40;;;;;;;16.96;100.00;98993.41;137578;1272;22271;-83
2023/09/14 06:49:07;;;;;;;13.00;10.10;;;;;;;17.02;100.00;98994.57;137543;1273;22088;-84
2023/09/14 06:52:08;;;;;;;11.90;10.20;;;;;;;17.09;100.00;98997.84;137460;1273;22193;-83
2023/09/14 06:55:09;;;;;;;10.20;9.30;;;;;;;17.16;100.00;99001.26;137452;1273;22780;-83
2023/09/14 06:58:12;;;;;;;12.50;9.20;;;;;;;17.23;100.00;99001.17;137559;1273;22217;-85
2023/09/14 07:01:13;;;;;;;10.10;9.00;;;;;;;17.35;100.00;99005.61;137447;1273;22241;-83
2023/09/14 07:04:14;;;;;;;10.70;9.00;;;;;;;17.41;100.00;99012.23;137390;1273;22274;-82
2023/09/14 07:07:16;;;;;;;8.80;7.70;;;;;;;17.53;100.00;99008.72;137579;1272;22405;-84
2023/09/14 07:10:18;;;;;;;6.80;6.10;;;;;;;17.68;100.00;99012.23;137500;1273;22346;-83
2023/09/14 07:13:19;;;;;;;6.40;5.50;;;;;;;17.87;100.00;99013.55;137546;1273;22166;-85
2023/09/14 07:16:21;;;;;;;6.30;5.70;;;;;;;18.00;100.00;99016.36;137501;1273;22250;-84
2023/09/14 07:19:26;;;;;;;4.90;4.50;;;;;;;18.13;100.00;99018.09;137564;1273;22380;-84
2023/09/14 07:22:27;;;;;;;5.30;4.60;;;;;;;18.29;100.00;99019.27;137564;1273;22955;-84
2023/09/14 07:25:28;;;;;;;4.40;4.00;;;;;;;18.52;100.00;99020.48;137392;1271;22562;-83
2023/09/14 07:28:29;;;;;;;4.30;3.90;;;;;;;18.66;100.00;99024.49;137373;1273;23009;-84
2023/09/14 07:31:30;;;;;;;4.30;3.90;;;;;;;18.77;100.00;99026.76;137367;1273;22259;-83
2023/09/14 07:34:32;;;;;;;4.10;3.30;;;;;;;18.92;100.00;99034.41;137290;1273;22236;-85
2023/09/14 07:37:33;;;;;;;4.00;3.60;;;;;;;19.00;100.00;99033.19;137593;1273;22303;-84
2023/09/14 07:40:34;;;;;;;6.00;3.70;;;;;;;19.17;100.00;99030.25;137407;1273;22256;-84
2023/09/14 07:43:36;;;;;;;4.70;3.20;;;;;;;19.38;100.00;99032.64;137446;1273;22224;-84
2023/09/14 07:46:45;;;;;;;3.10;2.80;;;;;;;19.50;100.00;99033.45;137510;1269;22563;-84
2023/09/14 07:49:46;;;;;;;3.90;2.90;;;;;;;19.49;100.00;99035.77;137417;1272;22247;-84
2023/09/14 07:52:47;;;;;;;3.60;3.30;;;;;;;19.51;100.00;99038.03;137593;1260;22909;-83
2023/09/14 07:55:52;;;;;;;4.40;3.30;;;;;;;19.41;100.00;99042.29;137576;1273;22172;-85
2023/09/14 07:58:53;;;;;;;4.10;3.10;;;;;;;19.21;100.00;99045.34;137573;1273;22176;-83
2023/09/14 08:01:54;;;;;;;3.80;3.50;;;;;;;18.98;100.00;99046.10;137590;1272;22263;-85
2023/09/14 08:04:55;;;;;;;4.70;3.70;;;;;;;18.90;100.00;99050.13;137542;1273;22190;-77
2023/09/14 08:07:57;;;;;;;5.40;3.80;;;;;;;18.89;100.00;99048.92;137574;1273;22347;-83
2023/09/14 08:10:58;;;;;;;4.00;3.70;;;;;;;18.92;100.00;99047.98;137492;1273;22653;-83
2023/09/14 08:14:00;;;;;;;6.70;4.00;;;;;;;18.96;100.00;99047.55;137528;1272;22293;-83
2023/09/14 08:17:02;;;;;;;4.20;3.80;;;;;;;19.01;100.00;99053.45;137550;1272;22877;-82
2023/09/14 08:20:04;;;;;;;3.50;3.20;;;;;;;19.02;100.00;99054.84;137550;1273;22695;-84
2023/09/14 08:23:05;;;;;;;5.10;3.30;;;;;;;19.06;100.00;99058.31;137545;1272;22171;-83
2023/09/14 08:26:06;;;;;;;3.10;2.90;;;;;;;19.20;100.00;99060.88;137581;1263;22285;-84
2023/09/14 08:29:07;;;;;;;6.80;3.40;;;;;;;19.28;100.00;99061.95;137542;1273;22239;-82
2023/09/14 08:32:08;;;;;;;3.40;3.10;;;;;;;19.28;100.00;99062.84;137465;1272;22192;-84
2023/09/14 08:35:09;;;;;;;4.40;3.30;;;;;;;19.32;100.00;99066.83;137537;1273;22793;-83
2023/09/14 08:38:11;;;;;;;5.60;3.50;;;;;;;19.36;100.00;99064.45;137549;1273;22339;-83
2023/09/14 08:41:12;;;;;;;4.10;3.70;;;;;;;19.54;100.00;99063.38;137448;1273;22554;-84
2023/09/14 08:44:16;;;;;;;;;;;;;;;19.76;100.00;99067.52;137533;1272;22492;-83
2023/09/14 08:47:17;;;;;;;4.90;3.50;;;;;;;19.96;100.00;99065.67;137435;1271;22291;-84
2023/09/14 08:50:18;;;;;;;3.30;3.00;;;;;;;20.06;100.00;99069.52;137577;1273;22176;-84
2023/09/14 08:53:20;;;;;;;4.50;2.90;;;;;;;20.08;100.00;99069.66;137607;1257;22179;-83
2023/09/14 08:56:21;;;;;;;3.40;3.10;;;;;;;20.17;100.00;99065.75;137482;1269;22271;-83
2023/09/14 08:59:22;;;;;;;5.60;3.60;;;;;;;20.28;100.00;99069.73;137605;1266;23257;-82
2023/09/14 09:02:23;;;;;;;3.80;2.80;;;;;;;20.40;100.00;99074.06;137392;1273;222570;-80
2023/09/14 09:05:24;;;;;;;3.40;3.10;;;;;;;20.41;100.00;99072.29;137608;1273;22361;-83
2023/09/14 09:08:26;;;;;;;3.30;3.00;;;;;;;20.40;100.00;99071.41;137529;1273;23004;-83
2023/09/14 09:11:27;;;;;;;3.10;2.90;;;;;;;20.35;100.00;99076.27;137527;1273;22238;-83
2023/09/14 09:14:28;;;;;;;5.80;3.20;;;;;;;20.34;100.00;99076.65;137592;1273;22254;-83
2023/09/14 09:17:29;;;;;;;7.00;3.00;;;;;;;20.53;100.00;99079.23;137650;1273;22372;-85
2023/09/14 09:20:30;;;;;;;3.80;3.40;;;;;;;20.71;100.00;99075.06;137531;1268;22208;-84
2023/09/14 09:23:31;;;;;;;3.80;3.40;;;;;;;20.81;100.00;99075.34;137560;1273;22544;-85
2023/09/14 09:26:33;;;;;;;4.60;3.20;;;;;;;20.80;100.00;99077.34;137537;1273;22302;-85
2023/09/14 09:29:34;;;;;;;4.40;3.40;;;;;;;20.69;100.00;99078.63;137558;1273;22170;-84
2023/09/14 09:32:35;;;;;;;3.30;3.00;;;;;;;20.57;100.00;99083.20;137542;1273;22208;-85
2023/09/14 09:35:39;;;;;;;4.30;3.40;;;;;;;20.32;100.00;99079.89;137536;1273;22392;-86
2023/09/14 09:38:41;;;;;;;4.50;3.70;;;;;;;20.18;100.00;99078.27;137538;1273;22237;-85
2023/09/14 09:41:42;;;;;;;4.30;3.90;;;;;;;20.09;100.00;99087.30;137567;1273;23434;-83
2023/09/14 09:44:43;;;;;;;5.30;4.80;;;;;;;20.06;100.00;99084.21;137610;1273;22404;-80
2023/09/14 09:47:44;;;;;;;4.30;3.90;;;;;;;20.07;100.00;99088.95;137539;1273;22202;-84
2023/09/14 09:50:47;;;;;;;6.50;4.50;;;;;;;20.32;100.00;99087.48;137545;1273;22746;-84
2023/09/14 09:53:48;;;;;;;6.20;5.00;;;;;;;20.72;100.00;99091.31;137475;1257;22167;-85
2023/09/14 09:56:49;;;;;;;6.90;5.40;;;;;;;21.05;100.00;99092.60;137542;1273;22731;-84
2023/09/14 09:59:50;;;;;;;12.20;5.30;;;;;;;21.18;100.00;99087.46;137567;1273;22102;-84
2023/09/14 10:02:51;;;;;;;6.20;5.50;;;;;;;21.26;100.00;99085.14;137518;1272;22680;-83
2023/09/14 10:05:52;;;;;;;6.70;6.10;;;;;;;21.24;100.00;99086.98;137521;1272;22224;-82
2023/09/14 10:08:54;;;;;;;6.40;5.70;;;;;;;21.12;100.00;99092.41;137549;1272;22685;-82
2023/09/14 10:11:55;;;;;;;6.90;6.30;;;;;;;20.85;100.00;99095.23;137509;1273;22951;-83
2023/09/14 10:14:56;;;;;;;7.10;6.30;;;;;;;20.71;100.00;99096.27;137526;1273;22273;-83
2023/09/14 10:17:57;;;;;;;8.60;6.90;;;;;;;20.60;100.00;99102.20;137584;1273;22152;-83
2023/09/14 10:20:58;;;;;;;8.70;6.20;;;;;;;20.47;100.00;99103.75;137496;1273;22231;-83
2023/09/14 10:24:00;;;;;;;7.20;6.10;;;;;;;20.46;100.00;99103.25;137632;1273;22233;-84
2023/09/14 10:27:01;;;;;;;8.10;7.30;;;;;;;20.46;100.00;99108.38;137581;1273;22238;-83
2023/09/14 10:30:02;;;;;;;10.00;7.10;;;;;;;20.43;100.00;99109.16;137559;1273;22677;-83
2023/09/14 10:33:03;;;;;;;8.10;7.40;;;;;;;20.36;100.00;99113.91;137549;1273;22202;-85
2023/09/14 10:36:04;;;;;;;9.10;7.20;;;;;;;20.26;100.00;99117.48;137593;1272;22230;-84
2023/09/14 10:39:06;;;;;;;8.80;6.90;;;;;;;20.23;100.00;99119.85;137566;1266;22450;-83
2023/09/14 10:42:07;;;;;;;7.80;7.00;;;;;;;20.19;100.00;99123.13;137572;1273;22258;-83
2023/09/14 10:45:08;;;;;;;7.70;7.10;;;;;;;20.18;100.00;99121.38;137455;1273;22184;-85
2023/09/14 10:48:09;;;;;;;7.70;6.80;;;;;;;20.32;100.00;99120.01;137596;1266;22285;-83
2023/09/14 10:51:11;;;;;;;9.20;6.50;;;;;;;20.46;100.00;99120.60;137484;1266;22223;-83
2023/09/14 10:54:12;;;;;;;6.90;6.30;;;;;;;20.55;100.00;99117.02;137552;1273;22174;-84
2023/09/14 10:57:14;;;;;;;7.70;6.70;;;;;;;20.63;100.00;99116.10;137542;1273;22533;-84
2023/09/14 11:00:15;;;;;;;8.00;7.20;;;;;;;20.55;100.00;99120.89;137522;1273;22370;-83
2023/09/14 11:03:16;;;;;;;8.60;6.90;;;;;;;20.56;100.00;99120.87;137600;1273;22470;-83
2023/09/14 11:06:18;;;;;;;8.10;7.10;;;;;;;20.62;100.00;99116.84;137589;1273;22355;-84
2023/09/14 11:09:19;;;;;;;10.40;6.70;;;;;;;20.75;100.00;99118.47;137481;1273;22440;-82
2023/09/14 11:12:20;;;;;;;7.20;6.50;;;;;;;20.79;100.00;99118.36;137569;1273;22282;-83
2023/09/14 11:18:59;;;;;;;8.40;6.80;;;;;;;21.09;100.00;99109.66;137540;1272;22242;-83
2023/09/14 11:22:04;;;;;;;7.10;6.50;;;;;;;21.26;100.00;99113.11;137599;1273;22205;-83
2023/09/14 11:25:05;;;;;;;6.30;5.70;;;;;;;21.41;100.00;99118.04;137574;1273;22791;-83
2023/09/14 11:28:06;;;;;;;5.80;4.90;;;;;;;21.50;100.00;99121.13;137537;1273;22164;-83
2023/09/14 11:31:07;;;;;;;6.50;5.70;;;;;;;21.53;100.00;99119.45;137544;1273;22318;-79
2023/09/14 11:34:08;;;;;;;6.00;5.40;;;;;;;21.56;100.00;99118.84;137563;1273;22273;-82
2023/09/14 11:37:09;;;;;;;5.20;4.80;;;;;;;21.62;100.00;99118.66;137530;1273;22598;-82
2023/09/14 11:40:10;;;;;;;5.50;5.00;;;;;;;21.61;100.00;99117.11;137524;1272;22324;-83
2023/09/14 11:43:20;;;;;;;12.10;5.00;;;;;;;21.72;100.00;99122.33;137573;1272;22459;-83
2023/09/14 11:46:22;;;;;;;8.50;4.80;;;;;;;21.85;100.00;99120.14;137563;1273;22095;-82
2023/09/14 11:49:23;;;;;;;5.30;4.80;;;;;;;22.03;100.00;99119.45;137563;1273;23173;-79
2023/09/14 11:52:26;;;;;;;5.60;5.20;;;;;;;22.12;100.00;99123.81;137535;1272;22158;-82
2023/09/14 11:55:27;;;;;;;24.90;6.60;;;;;;;22.14;100.00;99126.93;137548;1273;22426;-84
2023/09/14 11:58:28;;;;;;;6.00;4.80;;;;;;;22.23;100.00;99126.48;137521;1266;22254;-81
2023/09/14 12:01:30;;;;;;;5.50;5.00;;;;;;;22.33;100.00;99128.32;137525;1273;22321;-81
2023/09/14 12:04:31;;;;;;;6.10;5.60;;;;;;;22.27;100.00;99128.49;137513;1272;22391;-82
2023/09/14 12:07:34;;;;;;;6.20;4.80;;;;;;;22.05;100.00;99133.21;137473;1273;22707;-82
2023/09/14 12:10:35;;;;;;;6.00;5.50;;;;;;;21.71;100.00;99130.48;137483;1273;22694;-82
2023/09/14 12:13:36;;;;;;;5.30;4.70;;;;;;;21.36;100.00;99126.29;137496;1273;22751;-83
2023/09/14 12:16:40;;;;;;;;;;;;;;;21.17;100.00;99127.50;137507;1273;22282;-82
2023/09/14 12:19:41;;;;;;;6.50;5.90;;;;;;;20.88;100.00;99133.55;137532;1273;22394;-83
2023/09/14 12:22:42;;;;;;;8.10;5.60;;;;;;;20.55;100.00;99137.52;137529;1273;22215;-83
2023/09/14 12:25:43;;;;;;;5.20;4.80;;;;;;;20.32;100.00;99138.20;137412;1273;22120;-83
2023/09/14 12:28:45;;;;;;;7.90;5.20;;;;;;;20.17;100.00;99141.02;137446;1273;22599;-83
2023/09/14 12:31:46;;;;;;;5.50;4.40;;;;;;;20.14;100.00;99139.14;137380;1273;22241;-83
2023/09/14 12:34:47;;;;;;;6.80;4.10;;;;;;;20.27;100.00;99133.71;137526;1271;22523;-83
2023/09/14 12:37:48;;;;;;;5.30;4.30;;;;;;;20.53;100.00;99134.91;137467;1271;22945;-83
2023/09/14 12:40:50;;;;;;;5.80;4.40;;;;;;;20.73;100.00;99135.30;137398;1273;22386;-84
2023/09/14 12:43:51;;;;;;;7.90;4.10;;;;;;;20.93;100.00;99133.79;137560;1260;22131;-84
2023/09/14 12:46:52;;;;;;;4.40;4.00;;;;;;;21.11;100.00;99132.61;137546;1273;22246;-84
2023/09/14 12:49:54;;;;;;;8.80;3.90;;;;;;;21.19;100.00;99130.44;137160;1273;22240;-83
2023/09/14 12:52:55;;;;;;;4.70;3.90;;;;;;;21.15;100.00;99129.13;137573;1273;22732;-84
2023/09/14 12:55:56;;;;;;;6.20;3.80;;;;;;;21.13;100.00;99131.67;137612;1273;23103;-83
2023/09/14 12:58:57;;;;;;;4.30;3.90;;;;;;;21.21;100.00;99133.23;137372;1273;22248;-82
2023/09/14 13:01:59;;;;;;;7.00;3.30;;;;;;;21.23;100.00;99138.17;137382;1273;22234;-82
2023/09/14 13:05:01;;;;;;;4.40;3.60;;;;;;;21.15;100.00;99142.94;137579;1273;22693;-80
2023/09/14 13:08:08;;;;;;;5.30;3.10;;;;;;;21.22;100.00;99138.52;137529;1273;22243;-83
2023/09/14 13:11:09;;;;;;;3.00;2.80;;;;;;;21.44;100.00;99139.02;137508;1273;22333;-82
2023/09/14 13:14:10;;;;;;;6.50;3.10;;;;;;;21.58;100.00;99136.12;137496;1273;22101;-82
2023/09/14 13:17:11;;;;;;;3.00;2.80;;;;;;;21.60;100.00;99139.26;137538;1273;22622;-82
2023/09/14 13:20:12;;;;;;;3.30;2.80;;;;;;;21.58;100.00;99145.15;137556;1273;22622;-83
2023/09/14 13:23:14;;;;;;;3.10;2.60;;;;;;;21.69;100.00;99143.82;137508;1269;22102;-80
2023/09/14 13:26:15;;;;;;;2.70;2.50;;;;;;;21.65;100.00;99145.52;137516;1273;22613;-81
2023/09/14 13:29:17;;;;;;;3.90;2.30;;;;;;;21.49;100.00;99158.70;137542;1273;22194;-82
2023/09/14 13:32:18;;;;;;;3.30;2.60;;;;;;;21.35;100.00;99152.87;137508;1273;22248;-83
2023/09/14 13:35:20;;;;;;;2.60;2.40;;;;;;;21.32;100.00;99152.79;137472;1273;22193;-82
2023/09/14 13:38:21;;;;;;;2.30;2.10;;;;;;;21.31;100.00;99157.77;137519;1273;22531;-83
2023/09/14 13:41:23;;;;;;;3.80;2.10;;;;;;;21.29;100.00;99155.34;137540;1273;22294;-83
2023/09/14 13:44:24;;;;;;;4.30;2.30;;;;;;;21.35;100.00;99153.05;137527;1273;22808;-83
2023/09/14 13:47:25;;;;;;;2.60;2.30;;;;;;;21.49;100.00;99155.67;137589;1273;22823;-83